APRS Siero [IN73EI], 2 Stunde(n), EA1FLQ [19:58:55, 30s].
EA1FLQ 43.22.00N 005.36.35WIN73EI 0.202km 270°W17:31:43ZMMDVM DVMega 430.9750/430.9750 CC1
ED1ZAS 43.27.52N 005.40.17WIN73DL 11.557km 332°NNW17:30:04ZRD985 438.2250/430.6250 CC1
ED1ZAE 43.27.99N 005.40.54WIN73DL 12.543km 332°NNW17:58:11Z2m Voice 145.5875 -0.600 Mhz(3ED1ZAE-C)
400 M. PICO SAN MARTIN (GIJON) 13.3V,30.6C(2ED1ZAE-3)
EA1HJA 43.28.10N 005.30.45WIN73FL 13.706km 34°NE17:48:49ZEA1HJA@URE.ES(3EA1HJA-2)
EA4ACU 43.29.56N 005.38.92WIN73EL 14.497km 345°NNW17:31:45ZMMDVM MMDVM HS Hat 432.7000/432.7000 CC1(3EA4ACU-1)
EB1GEM 43.30.00N 005.36.07WIN73EM 14.843km N17:46:25ZWX3in1Plus2.0 U=13.3V,T=??.?C/??.?F(3EB1GEM-3)
EA1IPU 43.26.21N 005.46.62WIN73CK 16.049km 299°WNW17:31:19ZMMDVM MMDVM HS Hat 439.8000/439.8000 CC1(3EA1IPU-1)
EA1ABW 43.24.77N 005.47.77WIN73CJ 16.409km 288°WNW17:31:07ZMMDVM MMDVM HS Hat 439.8250/439.8250 CC1(3EA1ABW-2)
LEHU 43.22.63N 005.49.57WIN73CJ 18.046km 274°W17:30:03ZHelipuerto del HUCA: LEAS 031630Z 10007KT 060V140 CAVOK 20/17 Q1021 NOSIG=
EA1FHR 43.28.72N 005.26.41WIN73GL 18.128km 47°NE17:31:10ZMMDVM MMDVM HS Hat 439.1500/439.1500 CC1
EA1DZR 43.31.48N 005.40.00WIN73EM 18.291km 344°NNW17:32:01ZMMDVM DVMega 431.1000/431.1000 CC1(3EA1DZR-1)
MMDVM MMDVM HS Hat 432.2000/432.2000 CC2(2EA1DZR-2)
MMDVM DV ADER 434.3500/434.3500 CC1(2EA1DZR-4)
EA1HWD 43.28.96N 005.26.30WIN73GL 18.552km 46°NE17:31:39ZMMDVM MMDVM HS Hat 434.2500/434.2500 CC1
EA1JAY 43.29.33N 005.26.78WIN73GL 18.601km 43°NE17:45:03ZEA1JAY(3EA1JAY-2)
EA1FFA 43.31.53N 005.40.64WIN73DM 18.655km 341°NNW17:31:37ZMMDVM MMDVM HS Hat 438.8000/438.8000 CC1(3EA1FFA-1)
EA1IEJ 43.31.81N 005.40.64WIN73DM 19.147km 342°NNW17:31:19ZMMDVM DMO 222.3400/222.3400 CC1(3EA1IEJ-11)
MMDVM MMDVM HS Hat 438.8500/438.8500 CC6(2EA1IEJ-1)
LEMR 43.25.83N 005.49.60WIN73CK 19.387km 292°WNW17:30:03ZAerodromo de la Morgal (123.500MHz): LEAS 031630Z 10007KT 060V140 CAVOK 20/17 Q1021 NOSIG=
LEGM 43.26.15N 005.49.84WIN73CK 19.903km 293°WNW17:30:03ZHelipuerto de La Morgal (123.500MHz): LEAS 031630Z 10007KT 060V140 CAVOK 20/17 Q1021 NOSIG=
EA1JW 43.31.35N 005.28.83WIN73GM 19.968km 30°NNE17:30:51ZMMDVM MMDVM HS Hat 436.5000/436.5000 CC1(3EA1JW-3)
33D00 43.21.63N 005.51.13WIN73BI 20.111km 268°W17:58:41Z33-D-00 Protección Civil REMER / Delegación del Gobierno en Asturias
EA1JBU 43.21.85N 005.51.13WIN73BI 20.114km 269°W17:32:02ZEA1JBU(3EA1JBU-1)

aprs.pl 5.0.011w DL3EL © 2006-2021 [5804954]